createdAt,value
2018-04-22T08:36:39.313Z,19.50
2018-04-22T08:37:36.680Z,21.70
2018-04-22T08:38:37.863Z,21.80
2018-04-22T08:39:37.818Z,21.80
2018-04-22T08:40:37.825Z,22.50
2018-04-22T08:41:36.464Z,22.50
2018-04-22T08:42:36.681Z,22.00
2018-04-22T08:43:36.931Z,20.70
2018-04-22T08:44:37.155Z,20.30
2018-04-22T08:45:40.332Z,19.30
2018-04-22T08:46:37.558Z,20.40
2018-04-22T08:47:37.784Z,20.40
2018-04-22T08:48:38.007Z,20.00
2018-04-22T08:49:38.240Z,23.20
2018-04-22T08:50:39.294Z,19.90
2018-04-22T08:51:38.635Z,20.30
2018-04-22T08:52:38.916Z,18.70
2018-04-22T08:53:39.342Z,18.60
2018-04-22T08:54:39.306Z,18.90
2018-04-22T08:55:39.418Z,19.30
2018-04-22T08:56:42.315Z,18.70
2018-04-22T08:57:41.876Z,18.00
2018-04-22T08:58:42.796Z,18.90
2018-04-22T08:59:43.840Z,18.70
2018-04-22T09:00:42.366Z,17.20
2018-04-22T09:01:42.334Z,18.40
2018-04-22T09:02:46.793Z,19.50
2018-04-22T09:03:41.003Z,18.40
2018-04-22T09:04:44.816Z,18.50
2018-04-22T09:05:43.319Z,17.80
2018-04-22T09:09:29.930Z,17.20
2018-04-22T09:10:27.253Z,17.30
2018-04-22T09:11:27.539Z,17.70
2018-04-22T09:12:33.429Z,16.90
2018-04-22T09:13:29.453Z,17.40
2018-04-22T09:14:32.812Z,16.80
2018-04-22T09:15:30.053Z,16.30
2018-04-22T09:16:30.435Z,16.80
2018-04-22T09:17:30.425Z,16.70
2018-04-22T09:18:30.020Z,16.50
2018-04-22T09:19:32.927Z,16.00
2018-04-22T09:20:32.951Z,16.00
2018-04-22T09:21:31.467Z,16.70
2018-04-22T09:22:29.826Z,16.00
2018-04-22T09:23:30.908Z,17.00
2018-04-22T09:24:38.887Z,15.80
2018-04-22T09:25:32.462Z,16.00
2018-04-22T09:26:31.700Z,15.70
2018-04-22T09:27:32.432Z,14.20
2018-04-22T09:28:31.336Z,14.90
2018-04-22T09:29:32.945Z,16.10
2018-04-22T09:30:31.716Z,13.60
2018-04-22T09:31:33.424Z,15.20
2018-04-22T09:32:32.754Z,14.50
2018-04-22T09:33:32.152Z,14.10
2018-04-22T09:34:36.428Z,15.10
2018-04-22T09:35:36.437Z,15.40
2018-04-22T09:36:32.785Z,15.20
2018-04-22T09:37:34.988Z,14.60
2018-04-22T09:38:34.258Z,14.90
2018-04-22T09:39:36.436Z,14.40
2018-04-22T09:40:33.659Z,13.90
2018-04-22T09:41:34.916Z,13.60
2018-04-22T09:42:36.817Z,14.10
2018-04-22T09:43:36.884Z,13.70
2018-04-22T09:44:38.422Z,13.70
2018-04-22T09:45:34.645Z,13.70
2018-04-22T09:46:37.425Z,13.50
2018-04-22T09:47:36.954Z,14.10
2018-04-22T09:48:35.199Z,14.70
2018-04-22T09:49:35.468Z,14.30
2018-04-22T09:50:37.444Z,13.60
2018-04-22T09:51:35.939Z,14.10
2018-04-22T09:52:37.788Z,12.90
2018-04-22T09:53:39.923Z,14.10
2018-04-22T09:54:38.508Z,13.30
2018-04-22T09:55:36.824Z,12.80
2018-04-22T09:56:37.101Z,12.60
2018-04-22T09:57:38.994Z,12.60
2018-04-22T09:58:37.451Z,12.90
2018-04-22T09:59:38.384Z,12.50
2018-04-22T10:00:45.439Z,13.30
2018-04-22T10:01:38.030Z,14.10
2018-04-22T10:02:38.251Z,12.70
2018-04-22T10:03:43.436Z,12.10
2018-04-22T10:04:40.424Z,12.20
2018-04-22T10:05:38.769Z,12.30
2018-04-22T10:06:40.995Z,12.20
2018-04-22T10:07:39.253Z,12.50
2018-04-22T10:08:39.556Z,12.50
2018-04-22T10:09:44.398Z,13.50
2018-04-22T10:10:39.797Z,12.60
2018-04-22T10:11:39.948Z,12.40
2018-04-22T10:12:41.987Z,11.90
2018-04-22T10:13:42.928Z,12.10
2018-04-22T10:14:42.935Z,12.40
2018-04-22T10:15:42.431Z,13.00
2018-04-22T10:16:43.374Z,12.70
2018-04-22T10:17:41.154Z,12.20
2018-04-22T10:18:45.675Z,12.40
2018-04-22T10:19:41.888Z,11.60
2018-04-22T10:20:44.426Z,11.90
2018-04-22T10:21:43.461Z,11.40
2018-04-22T10:23:07.038Z,11.30
2018-04-22T10:23:44.428Z,11.30
2018-04-22T10:24:43.928Z,11.60
2018-04-22T10:25:51.354Z,10.60
2018-04-22T10:26:42.889Z,10.20
2018-04-22T10:27:46.948Z,11.20
2018-04-22T10:28:43.294Z,11.80
2018-04-22T10:29:44.562Z,10.90
2018-04-22T10:30:43.735Z,11.70
2018-04-22T10:31:43.925Z,10.70
2018-04-22T10:32:45.923Z,10.90
2018-04-22T10:33:47.931Z,11.70
2018-04-22T10:34:45.695Z,11.70
2018-04-22T10:35:45.902Z,10.80
2018-04-22T10:36:46.930Z,11.50
2018-04-22T10:38:00.918Z,11.30
2018-04-22T10:38:47.459Z,10.80
2018-04-22T10:39:45.764Z,9.60
2018-04-22T10:40:49.916Z,9.70
2018-04-22T10:41:46.137Z,9.60
2018-04-22T10:42:47.296Z,9.90
2018-04-22T10:43:58.443Z,9.50
2018-04-22T10:44:46.682Z,8.30
2018-04-22T10:45:50.425Z,7.80
2018-04-22T10:46:47.066Z,7.20
2018-04-22T10:47:47.321Z,7.50
2018-04-22T10:48:47.493Z,7.30
2018-04-22T10:49:49.426Z,7.60
2018-04-22T10:50:48.796Z,7.10
2018-04-22T10:51:48.046Z,8.10
2018-04-22T10:52:49.989Z,8.80
2018-04-22T10:53:52.488Z,7.20
2018-04-22T10:54:50.363Z,8.00
2018-04-22T10:55:56.443Z,7.50
2018-04-22T10:56:50.922Z,6.50
2018-04-22T10:58:11.921Z,7.10
2018-04-22T10:58:51.848Z,5.70
2018-04-22T10:59:51.891Z,5.90
2018-04-22T11:00:51.535Z,6.40
2018-04-22T11:01:50.025Z,7.00
2018-04-22T11:02:51.931Z,7.60
2018-04-22T11:03:54.898Z,7.30
2018-04-22T11:04:54.435Z,5.80
2018-04-22T11:05:52.423Z,7.30
2018-04-22T11:06:52.921Z,8.70
2018-04-22T11:07:57.928Z,5.40
2018-04-22T11:09:07.416Z,6.10
2018-04-22T11:09:54.825Z,7.20
2018-04-22T11:10:54.892Z,6.20
2018-04-22T11:11:55.398Z,5.70
2018-04-22T11:12:53.453Z,6.30
2018-04-22T11:13:55.377Z,7.00
2018-04-22T11:14:54.417Z,6.60
2018-04-22T11:15:54.424Z,7.30
2018-04-22T11:16:53.938Z,5.90
2018-04-22T11:17:53.919Z,6.90
2018-04-22T11:18:58.676Z,6.40
2018-04-22T11:19:55.921Z,6.90
2018-04-22T11:20:54.872Z,6.40
2018-04-22T11:21:54.907Z,6.90
2018-04-22T11:22:55.919Z,7.60
2018-04-22T11:23:55.406Z,7.80
2018-04-22T11:24:55.876Z,8.30
2018-04-22T11:25:57.409Z,6.90
2018-04-22T11:26:59.925Z,6.10
2018-04-22T11:27:58.927Z,7.40
2018-04-22T11:29:10.925Z,7.90
2018-04-22T11:29:55.639Z,6.40
2018-04-22T11:30:57.322Z,6.00
2018-04-22T11:32:12.877Z,6.10
2018-04-22T11:32:57.946Z,7.60
2018-04-22T11:34:00.433Z,7.60
2018-04-22T11:34:59.378Z,7.80
2018-04-22T11:36:21.859Z,7.70
2018-04-22T11:37:02.721Z,7.60
2018-04-22T11:37:58.918Z,5.80
2018-04-22T11:38:58.923Z,5.80
2018-04-22T11:39:59.440Z,7.10
2018-04-22T11:41:13.651Z,7.00
2018-04-22T11:41:59.435Z,8.10
2018-04-22T11:42:59.935Z,5.90
2018-04-22T11:44:00.946Z,7.90
2018-04-22T11:45:02.873Z,5.80
2018-04-22T11:45:59.408Z,7.00
2018-04-22T11:47:01.489Z,6.90
2018-04-22T11:48:02.944Z,5.00
2018-04-22T11:49:00.163Z,6.20
2018-04-22T11:50:02.915Z,7.00
2018-04-22T11:50:59.644Z,6.30
2018-04-22T11:52:01.719Z,6.20
2018-04-22T11:53:21.120Z,6.30
2018-04-22T11:54:07.943Z,5.80
2018-04-22T11:55:03.916Z,7.10
2018-04-22T11:56:00.706Z,8.10
2018-04-22T11:57:00.842Z,7.50
2018-04-22T11:58:03.922Z,6.10
2018-04-22T11:59:01.921Z,6.90
2018-04-22T12:00:01.930Z,7.40
2018-04-22T12:01:02.875Z,5.80
2018-04-22T12:02:03.426Z,7.40
2018-04-22T12:03:24.417Z,6.40
2018-04-22T12:04:02.018Z,4.90
2018-04-22T12:05:03.990Z,5.40
2018-04-22T12:06:03.922Z,5.70
2018-04-22T12:07:05.564Z,7.70
2018-04-22T12:08:06.414Z,6.50
2018-04-22T12:09:04.031Z,5.70
2018-04-22T12:10:05.099Z,6.60
2018-04-22T12:11:05.896Z,6.20
2018-04-22T12:12:05.438Z,6.00
2018-04-22T12:13:09.439Z,5.30
2018-04-22T12:14:05.908Z,5.60
2018-04-22T12:15:06.982Z,5.90
2018-04-22T12:16:06.426Z,6.60
2018-04-22T12:17:04.675Z,5.00
2018-04-22T12:18:04.870Z,5.90
2018-04-22T12:19:06.872Z,5.60
2018-04-22T12:20:06.348Z,5.60
2018-04-22T12:21:06.481Z,7.00
2018-04-22T12:22:06.422Z,7.00
2018-04-22T12:23:07.436Z,7.90
2018-04-22T12:24:10.983Z,5.80
2018-04-22T12:25:06.879Z,6.20
2018-04-22T12:26:06.417Z,6.00
2018-04-22T12:27:06.629Z,7.30
2018-04-22T12:28:08.864Z,6.40
2018-04-22T12:29:09.524Z,4.90
2018-04-22T12:30:08.923Z,8.90
2018-04-22T12:31:07.389Z,6.10
2018-04-22T12:32:07.611Z,6.90
2018-04-22T12:33:08.880Z,7.50
2018-04-22T12:34:08.013Z,4.90
2018-04-22T12:35:08.232Z,6.00
2018-04-22T12:36:08.461Z,6.60
2018-04-22T12:37:12.433Z,5.70
2018-04-22T12:38:12.424Z,5.20
2018-04-22T12:39:09.776Z,7.90
2018-04-22T12:40:10.252Z,9.50
2018-04-22T12:41:09.361Z,5.70
2018-04-22T12:42:11.478Z,6.20
2018-04-22T12:43:11.399Z,6.40
2018-04-22T12:44:22.540Z,6.50
2018-04-22T12:45:10.250Z,6.30
2018-04-22T12:46:14.840Z,5.30
2018-04-22T12:47:17.426Z,5.20
2018-04-22T12:48:10.861Z,6.50
2018-04-22T12:49:15.871Z,5.20
2018-04-22T12:50:11.117Z,4.40
2018-04-22T12:51:12.364Z,6.80
2018-04-22T12:52:13.961Z,5.70
2018-04-22T12:53:14.449Z,5.90
2018-04-22T12:54:14.078Z,6.90
2018-04-22T12:55:33.907Z,7.10
2018-04-22T12:56:13.399Z,5.20
2018-04-22T12:57:22.872Z,5.80
2018-04-22T12:58:17.389Z,6.20
2018-04-22T12:59:14.467Z,8.10
2018-04-22T13:00:14.477Z,5.80
2018-04-22T13:01:14.881Z,6.80
2018-04-22T13:03:50.190Z,4.80
2018-04-22T13:04:46.779Z,7.90
2018-04-22T13:05:49.269Z,5.10
2018-04-22T13:06:47.281Z,6.50
2018-04-22T13:07:45.879Z,7.20
2018-04-22T13:08:46.197Z,6.90
2018-04-22T13:10:09.309Z,5.40
2018-04-22T13:10:46.612Z,5.80
2018-04-22T13:11:48.252Z,6.00
2018-04-22T13:12:54.779Z,5.30
2018-04-22T13:13:50.799Z,7.70
2018-04-22T13:14:48.403Z,7.10
2018-04-22T13:15:55.311Z,6.90
2018-04-22T13:16:51.478Z,7.10
2018-04-22T13:17:47.932Z,7.30
2018-04-22T13:18:48.245Z,7.00
2018-04-22T13:19:48.403Z,7.20
2018-04-22T13:20:50.288Z,7.60
2018-04-22T13:21:49.778Z,5.30
2018-04-22T13:22:50.854Z,7.20
2018-04-22T13:23:50.230Z,7.90
2018-04-22T13:24:51.275Z,5.30
2018-04-22T13:25:49.587Z,5.40
2018-04-22T13:26:49.718Z,6.90
2018-04-22T13:27:51.793Z,6.30
2018-04-22T13:28:52.862Z,6.30
2018-04-22T13:30:06.273Z,5.40
2018-04-22T13:30:54.670Z,8.10
2018-04-22T13:31:53.759Z,5.50
2018-04-22T13:32:53.251Z,6.50
2018-04-22T13:33:53.726Z,7.30
2018-04-22T13:34:51.246Z,7.80
2018-04-22T13:35:57.225Z,7.30
2018-04-22T13:36:52.631Z,6.00
2018-04-22T13:37:51.800Z,6.00
2018-04-22T13:38:53.910Z,6.30
2018-04-22T13:39:53.219Z,6.50
2018-04-22T13:40:55.234Z,6.60
2018-04-22T13:41:55.277Z,5.90
2018-04-22T13:42:52.748Z,7.20
2018-04-22T13:43:54.785Z,5.90
2018-04-22T13:44:54.759Z,7.40
2018-04-22T13:45:57.276Z,6.20
2018-04-22T13:46:55.321Z,5.00
2018-04-22T13:48:00.282Z,4.50
2018-04-22T13:49:18.775Z,7.50
2018-04-22T13:49:55.161Z,6.00
2018-04-22T13:50:54.275Z,6.50
2018-04-22T13:51:55.512Z,6.70
2018-04-22T13:52:55.762Z,6.80
2018-04-22T13:54:02.781Z,7.90
2018-04-22T13:55:10.789Z,7.80
2018-04-22T13:55:55.506Z,5.70
2018-04-22T13:56:55.538Z,5.30
2018-04-22T13:57:57.289Z,6.50
2018-04-22T13:59:00.401Z,11.00
2018-04-22T13:59:59.735Z,6.10
2018-04-22T14:00:57.363Z,7.30
2018-04-22T14:02:08.303Z,7.30
2018-04-22T14:03:00.278Z,7.20
2018-04-22T14:03:57.927Z,9.00
2018-04-22T14:04:57.037Z,7.50
2018-04-22T14:05:59.307Z,6.10
2018-04-22T14:06:57.402Z,5.70
2018-04-22T14:07:57.620Z,7.60
2018-04-22T14:08:58.775Z,5.40
2018-04-22T14:10:00.785Z,7.10
2018-04-22T14:10:58.251Z,7.20
2018-04-22T14:11:59.271Z,7.10
2018-04-22T14:13:03.284Z,7.80
2018-04-22T14:13:58.918Z,5.60
2018-04-22T14:15:01.739Z,5.20
2018-04-22T14:15:59.378Z,8.30
2018-04-22T14:17:01.281Z,6.40
2018-04-22T14:18:01.308Z,7.10
2018-04-22T14:19:01.785Z,7.50
2018-04-22T14:20:01.829Z,7.60
2018-04-22T14:21:01.271Z,5.60
2018-04-22T14:22:02.600Z,9.60
2018-04-22T14:23:08.289Z,7.20
2018-04-22T14:24:08.788Z,5.80
2018-04-22T14:25:04.830Z,6.30
2018-04-22T14:26:04.235Z,4.80
2018-04-22T14:27:24.320Z,6.30
2018-04-22T14:28:03.292Z,5.30
2018-04-22T14:29:02.812Z,7.90
2018-04-22T14:30:01.924Z,7.90
2018-04-22T14:31:03.814Z,6.50
2018-04-22T14:32:04.744Z,6.60
2018-04-22T14:33:05.265Z,7.50
2018-04-22T14:34:02.697Z,6.70
2018-04-22T14:35:02.896Z,6.00
2018-04-22T14:36:11.787Z,8.10
2018-04-22T14:37:07.767Z,6.70
2018-04-22T14:38:04.574Z,8.20
2018-04-22T14:39:19.310Z,6.30
2018-04-22T14:40:03.925Z,6.00
2018-04-22T14:41:07.825Z,5.60
2018-04-22T14:42:06.239Z,6.90
2018-04-22T14:43:04.573Z,6.60
2018-04-22T14:44:04.765Z,6.00
2018-04-22T14:45:20.781Z,5.40
2018-04-22T14:46:06.800Z,6.40
2018-04-22T14:47:08.829Z,6.10
2018-04-22T14:48:07.362Z,8.00
2018-04-22T14:49:06.060Z,5.80
2018-04-22T14:50:08.855Z,7.20
2018-04-22T14:51:06.063Z,7.30
2018-04-22T14:52:06.294Z,5.90
2018-04-22T14:53:11.226Z,5.10
2018-04-22T14:54:07.737Z,7.60
2018-04-22T14:55:07.746Z,8.50
2018-04-22T14:56:08.775Z,5.90
2018-04-22T14:57:08.840Z,7.00
2018-04-22T14:58:07.314Z,7.20
2018-04-22T14:59:07.572Z,6.20
2018-04-22T15:00:11.278Z,5.30
2018-04-22T15:01:08.758Z,6.90
2018-04-22T15:02:10.658Z,7.50
2018-04-22T15:03:12.284Z,5.90
2018-04-22T15:04:09.252Z,5.70
2018-04-22T15:05:10.330Z,6.60
2018-04-22T15:06:29.892Z,7.20
2018-04-22T15:07:10.180Z,5.20
2018-04-22T15:08:12.784Z,5.10
2018-04-22T15:09:11.345Z,6.60
2018-04-22T15:10:11.283Z,5.60
2018-04-22T15:11:17.279Z,5.40
2018-04-22T15:12:18.743Z,7.50
2018-04-22T15:13:12.787Z,7.10
2018-04-22T15:14:31.383Z,6.40
2018-04-22T15:15:10.591Z,5.60
2018-04-22T15:16:10.817Z,5.50
2018-04-22T15:17:12.075Z,4.60
2018-04-22T15:18:12.792Z,8.30
2018-04-22T15:19:12.542Z,6.00
2018-04-22T15:20:15.343Z,9.20
2018-04-22T15:21:15.280Z,6.60
2018-04-22T15:22:14.820Z,6.60
2018-04-22T15:23:17.794Z,6.40
2018-04-22T15:24:12.385Z,7.10
2018-04-22T15:25:12.623Z,5.60
2018-04-22T15:26:12.735Z,7.00
2018-04-22T15:27:13.026Z,6.40
2018-04-22T15:28:14.823Z,7.90
2018-04-22T15:29:15.310Z,6.70
2018-04-22T15:30:15.056Z,5.10
2018-04-22T15:31:13.838Z,4.90
2018-04-22T15:32:14.016Z,5.40
2018-04-22T15:33:17.803Z,6.00
2018-04-22T15:34:14.409Z,6.50
2018-04-22T15:35:14.637Z,6.00
2018-04-22T15:36:14.866Z,5.80
2018-04-22T15:37:15.104Z,7.50
2018-04-22T15:38:17.327Z,7.70
2018-04-22T15:39:18.289Z,8.20
2018-04-22T15:40:17.294Z,9.30
2018-04-22T15:41:16.050Z,5.50
2018-04-22T15:42:16.172Z,7.30
2018-04-22T15:43:18.294Z,8.20
2018-04-22T15:44:18.283Z,6.50
2018-04-22T15:45:18.286Z,5.80
2018-04-22T15:46:16.893Z,6.60
2018-04-22T15:47:17.133Z,5.80
2018-04-22T15:48:17.361Z,7.50
2018-04-22T15:49:21.293Z,8.20
2018-04-22T15:50:17.766Z,6.10
2018-04-22T15:51:20.797Z,8.10
2018-04-22T15:52:18.140Z,7.10
2018-04-22T15:53:18.363Z,9.30
2018-04-22T15:54:18.583Z,7.60
2018-04-22T15:55:30.813Z,6.00
2018-04-22T15:56:20.064Z,11.00
2018-04-22T15:57:19.167Z,6.10
2018-04-22T15:58:21.290Z,9.40
2018-04-22T15:59:19.512Z,7.90
2018-04-22T16:00:19.770Z,7.70
2018-04-22T16:01:19.890Z,6.80
2018-04-22T16:02:21.796Z,7.10
2018-04-22T16:03:21.809Z,7.30
2018-04-22T16:04:22.300Z,8.70
2018-04-22T16:05:20.639Z,6.60
2018-04-22T16:06:20.867Z,6.90
2018-04-22T16:07:22.790Z,7.30
2018-04-22T16:08:21.287Z,5.00
2018-04-22T16:09:25.315Z,7.70
2018-04-22T16:10:22.653Z,6.50
2018-04-22T16:11:24.297Z,7.00
2018-04-22T16:12:21.926Z,7.30
2018-04-22T16:13:23.832Z,8.80
2018-04-22T16:14:22.399Z,6.60
2018-04-22T16:15:24.287Z,7.50
2018-04-22T16:16:24.297Z,6.40
2018-04-22T16:17:24.799Z,5.60
2018-04-22T16:18:23.016Z,6.70
2018-04-22T16:19:24.792Z,8.60
2018-04-22T16:20:23.389Z,7.10
2018-04-22T16:21:25.304Z,6.60
2018-04-22T16:22:25.333Z,7.00
2018-04-22T16:23:24.001Z,8.00
2018-04-22T16:24:24.235Z,6.60
2018-04-22T16:25:24.458Z,8.70
2018-04-22T16:26:26.298Z,7.70
2018-04-22T16:27:26.821Z,8.10
2018-04-22T16:28:25.043Z,6.50
2018-04-22T16:29:26.192Z,7.40
2018-04-22T16:30:25.419Z,6.40
2018-04-22T16:31:28.288Z,7.10
2018-04-22T16:32:25.879Z,8.10
2018-04-22T16:33:31.797Z,7.50
2018-04-22T16:34:26.268Z,7.40
2018-04-22T16:35:26.542Z,7.70
2018-04-22T16:36:30.309Z,7.90
2018-04-22T16:37:26.929Z,6.20
2018-04-22T16:38:27.153Z,6.50
2018-04-22T16:39:27.376Z,5.60
2018-04-22T16:40:27.602Z,6.20
2018-04-22T16:41:27.821Z,8.90
2018-04-22T16:42:28.048Z,6.40
2018-04-22T16:43:28.260Z,6.60
2018-04-22T16:44:30.357Z,7.70
2018-04-22T16:45:28.678Z,8.90
2018-04-22T16:46:28.892Z,10.40
2018-04-22T16:47:29.119Z,10.30
2018-04-22T16:48:30.351Z,7.20
2018-04-22T16:49:30.466Z,9.90
2018-04-22T16:50:31.328Z,7.90
2018-04-22T16:51:31.802Z,8.40
2018-04-22T16:52:30.141Z,7.70
2018-04-22T16:53:30.374Z,6.10
2018-04-22T16:54:30.584Z,7.50
2018-04-22T16:55:30.812Z,8.50
2018-04-22T16:56:33.817Z,7.30
2018-04-22T16:57:31.175Z,6.30
2018-04-22T16:58:31.400Z,8.20
2018-04-22T16:59:33.290Z,6.50
2018-04-22T17:00:31.776Z,6.00
2018-04-22T17:01:31.993Z,9.10
2018-04-22T17:02:32.235Z,6.50
2018-04-22T17:03:32.357Z,7.80
2018-04-22T17:04:34.293Z,7.20
2018-04-22T17:05:32.771Z,7.20
2018-04-22T17:06:33.001Z,6.50
2018-04-22T17:07:34.256Z,6.90
2018-04-22T17:08:35.327Z,8.00
2018-04-22T17:09:35.299Z,7.00
2018-04-22T17:10:33.769Z,7.20
2018-04-22T17:11:36.796Z,9.00
2018-04-22T17:12:36.796Z,7.30
2018-04-22T17:13:34.289Z,6.30
2018-04-22T17:14:34.452Z,7.40
2018-04-22T17:15:34.540Z,7.20
2018-04-22T17:16:34.753Z,7.60
2018-04-22T17:17:34.970Z,6.90
2018-04-22T17:18:35.190Z,7.80
2018-04-22T17:19:35.412Z,6.70
2018-04-22T17:20:35.640Z,7.20
2018-04-22T17:21:35.867Z,7.20
2018-04-22T17:22:36.101Z,7.20
2018-04-22T17:23:36.335Z,7.60
2018-04-22T17:24:36.554Z,8.50
2018-04-22T17:25:36.788Z,7.40
2018-04-22T17:26:37.016Z,6.40
2018-04-22T17:27:37.241Z,6.70
2018-04-22T17:28:37.473Z,7.90
2018-04-22T17:29:37.700Z,6.90
2018-04-22T17:30:39.798Z,6.00
2018-04-22T17:31:38.056Z,6.20
2018-04-22T17:32:41.822Z,7.30
2018-04-22T17:33:38.418Z,7.30
2018-04-22T17:34:38.646Z,8.10
2018-04-22T17:35:38.869Z,8.00
2018-04-22T17:36:39.103Z,9.10
2018-04-22T17:37:42.314Z,9.10
2018-04-22T17:38:39.521Z,7.20
2018-04-22T17:39:39.748Z,6.80
2018-04-22T17:40:39.974Z,7.20
2018-04-22T17:41:41.793Z,8.30
2018-04-22T17:42:40.383Z,6.80
2018-04-22T17:43:40.608Z,6.90
2018-04-22T17:44:40.828Z,6.80
2018-04-22T17:45:41.084Z,7.50
2018-04-22T17:46:41.300Z,7.10
2018-04-22T17:47:43.300Z,7.50
2018-04-22T17:48:41.692Z,10.50
2018-04-22T17:49:41.784Z,6.80
2018-04-22T17:50:41.993Z,10.90
2018-04-22T17:51:42.235Z,13.20
2018-04-22T17:52:42.465Z,13.80
2018-04-22T17:53:44.316Z,9.50
2018-04-22T17:54:44.327Z,8.50
2018-04-22T17:55:42.933Z,7.70
2018-04-22T17:56:44.798Z,6.50
2018-04-22T17:57:43.385Z,7.40
2018-04-22T17:58:43.630Z,5.80
2018-04-22T17:59:45.805Z,7.00
2018-04-22T18:00:46.811Z,7.80
2018-04-22T18:01:44.212Z,5.80
2018-04-22T18:02:44.376Z,7.00
2018-04-22T18:03:44.635Z,6.90
2018-04-22T18:04:44.858Z,7.00
2018-04-22T18:05:44.953Z,8.30
2018-04-22T18:06:45.181Z,8.70
2018-04-22T18:07:45.395Z,9.90
2018-04-22T18:08:47.327Z,8.40
2018-04-22T18:09:45.763Z,8.10
2018-04-22T18:10:46.100Z,6.20
2018-04-22T18:11:46.221Z,7.10
2018-04-22T18:12:46.436Z,8.50
2018-04-22T18:13:48.298Z,7.60
2018-04-22T18:14:48.803Z,5.90
2018-04-22T18:15:48.807Z,6.90
2018-04-22T18:16:47.186Z,7.00
2018-04-22T18:17:47.382Z,8.70
2018-04-22T18:18:47.610Z,9.10
2018-04-22T18:19:49.818Z,7.20
2018-04-22T18:20:48.085Z,8.30
2018-04-22T18:21:48.286Z,7.10
2018-04-22T18:22:48.519Z,7.00
2018-04-22T18:23:48.758Z,5.80
2018-04-22T18:24:50.804Z,7.90
2018-04-22T18:25:49.155Z,7.60
2018-04-22T18:26:49.374Z,6.30
2018-04-22T18:27:49.655Z,6.30
2018-04-22T18:28:49.827Z,7.30
2018-04-22T18:29:50.068Z,7.80
2018-04-22T18:30:50.269Z,10.30
2018-04-22T18:31:50.492Z,7.70
2018-04-22T18:32:50.716Z,7.70
2018-04-22T18:33:50.942Z,7.20
2018-04-22T18:34:51.159Z,7.20
2018-04-22T18:35:51.376Z,6.40
2018-04-22T18:36:51.622Z,7.80
2018-04-22T18:37:51.894Z,8.00
2018-04-22T18:38:52.054Z,11.50
2018-04-22T18:39:52.290Z,7.90
2018-04-22T18:40:52.524Z,8.90
2018-04-22T18:41:52.725Z,7.60
2018-04-22T18:42:52.962Z,8.20
2018-04-22T18:43:54.803Z,6.60
2018-04-22T18:44:53.400Z,8.50
2018-04-22T18:45:53.615Z,9.20
2018-04-22T18:46:53.829Z,8.50
2018-04-22T18:47:54.048Z,8.90
2018-04-22T18:48:54.264Z,9.90
2018-04-22T18:49:54.507Z,9.00
2018-04-22T18:50:54.719Z,6.70
2018-04-22T18:51:54.920Z,9.70
2018-04-22T18:52:55.135Z,7.20
2018-04-22T18:53:55.366Z,6.80
2018-04-22T18:54:55.591Z,9.00
2018-04-22T18:55:57.301Z,8.10
2018-04-22T18:56:56.034Z,11.50
2018-04-22T18:57:56.236Z,9.80
2018-04-22T18:58:58.299Z,6.70
2018-04-22T18:59:56.653Z,6.20
2018-04-22T19:00:56.882Z,7.40
2018-04-22T19:01:57.083Z,8.10
2018-04-22T19:02:57.299Z,7.90
2018-04-22T19:03:57.529Z,9.10
2018-04-22T19:04:57.767Z,6.00
2018-04-22T19:05:57.983Z,10.20
2018-04-22T19:06:58.239Z,8.60
2018-04-22T19:07:58.430Z,7.20
2018-04-22T19:08:58.634Z,7.70
2018-04-22T19:09:58.857Z,9.20
2018-04-22T19:10:59.078Z,10.00
2018-04-22T19:11:59.307Z,8.90
2018-04-22T19:12:59.524Z,8.50
2018-04-22T19:13:59.735Z,8.80
2018-04-22T19:14:59.963Z,9.20
2018-04-22T19:16:01.810Z,8.00
2018-04-22T19:17:02.297Z,9.50
2018-04-22T19:18:00.647Z,11.30
2018-04-22T19:19:00.881Z,8.80
2018-04-22T19:20:01.071Z,8.50
2018-04-22T19:21:01.291Z,9.20
2018-04-22T19:22:01.495Z,7.00
2018-04-22T19:23:01.732Z,7.50
2018-04-22T19:24:01.935Z,8.60
2018-04-22T19:25:02.160Z,8.20
2018-04-22T19:26:04.307Z,7.50
2018-04-22T19:27:02.510Z,9.10
2018-04-22T19:28:02.740Z,6.90
2018-04-22T19:29:02.964Z,6.40
2018-04-22T19:30:03.170Z,7.70
2018-04-22T19:31:05.313Z,7.00
2018-04-22T19:32:03.569Z,9.90
2018-04-22T19:33:03.738Z,8.20
2018-04-22T19:34:03.966Z,9.30
2018-04-22T19:35:04.187Z,10.40
2018-04-22T19:36:04.417Z,10.50
2018-04-22T19:37:04.625Z,7.60
2018-04-22T19:38:04.847Z,8.70
2018-04-22T19:39:07.823Z,8.00
2018-04-22T19:40:05.284Z,9.60
2018-04-22T19:41:05.504Z,8.30
2018-04-22T19:42:05.706Z,9.30
2018-04-22T19:43:05.928Z,8.90
2018-04-22T19:44:06.145Z,7.30
2018-04-22T19:45:06.372Z,7.70
2018-04-22T19:46:08.305Z,9.10
2018-04-22T19:47:06.766Z,7.70
2018-04-22T19:48:06.992Z,10.90
2018-04-22T19:49:07.215Z,8.50
2018-04-22T19:50:07.438Z,8.90
2018-04-22T19:51:09.301Z,6.90
2018-04-22T19:52:07.897Z,7.80
2018-04-22T19:53:08.121Z,9.60
2018-04-22T19:54:08.344Z,8.50
2018-04-22T19:55:08.552Z,9.00
2018-04-22T19:56:08.776Z,9.10
2018-04-22T19:57:08.985Z,7.60
2018-04-22T19:58:09.195Z,8.40
2018-04-22T19:59:09.440Z,8.80
2018-04-22T20:00:09.647Z,9.80
2018-04-22T20:01:09.862Z,10.40
2018-04-22T20:02:11.811Z,10.20
2018-04-22T20:03:10.288Z,9.90
2018-04-22T20:04:10.501Z,10.00
2018-04-22T20:05:10.724Z,8.20
2018-04-22T20:06:10.938Z,10.90
2018-04-22T20:07:11.168Z,8.40
2018-04-22T20:08:11.397Z,11.60
2018-04-22T20:09:11.616Z,7.60
2018-04-22T20:10:11.836Z,7.60
2018-04-22T20:11:13.818Z,7.20
2018-04-22T20:12:14.813Z,8.20
2018-04-22T20:13:12.408Z,7.80
2018-04-22T20:14:12.619Z,6.10
2018-04-22T20:15:12.831Z,8.70
2018-04-22T20:16:13.041Z,7.30
2018-04-22T20:17:14.813Z,9.30
2018-04-22T20:18:13.409Z,8.00
2018-04-22T20:19:13.627Z,8.30
2018-04-22T20:20:13.847Z,9.40
2018-04-22T20:21:14.074Z,9.50
2018-04-22T20:22:14.292Z,9.40
2018-04-22T20:23:14.518Z,8.60
2018-04-22T20:24:14.729Z,11.00
2018-04-22T20:25:14.986Z,9.40
2018-04-22T20:26:15.187Z,10.90
2018-04-22T20:27:15.381Z,10.80
2018-04-22T20:28:15.584Z,9.10
2018-04-22T20:29:15.817Z,8.50
2018-04-22T20:30:16.027Z,9.40
2018-04-22T20:31:16.239Z,8.10
2018-04-22T20:32:16.464Z,9.00
2018-04-22T20:33:16.664Z,8.60
2018-04-22T20:34:18.814Z,8.90
2018-04-22T20:35:17.032Z,8.20
2018-04-22T20:36:17.245Z,7.40
2018-04-22T20:37:17.461Z,5.80
2018-04-22T20:38:17.732Z,7.50
2018-04-22T20:39:17.980Z,8.10
2018-04-22T20:40:18.164Z,7.00
2018-04-22T20:41:18.376Z,8.50
2018-04-22T20:42:18.596Z,9.40
2018-04-22T20:43:18.814Z,10.30
2018-04-22T20:44:19.032Z,9.00
2018-04-22T20:45:19.247Z,8.60
2018-04-22T20:46:19.459Z,7.80
2018-04-22T20:47:19.678Z,7.50
2018-04-22T20:48:19.893Z,10.20
2018-04-22T20:49:20.103Z,7.50
2018-04-22T20:50:20.326Z,9.50
2018-04-22T20:51:20.551Z,8.10
2018-04-22T20:52:20.756Z,8.70
2018-04-22T20:53:20.982Z,9.70
2018-04-22T20:54:21.209Z,9.30
2018-04-22T20:55:21.453Z,7.90
2018-04-22T20:56:21.655Z,7.00
2018-04-22T20:57:21.874Z,9.20
2018-04-22T20:58:22.084Z,8.90
2018-04-22T20:59:22.307Z,9.80
2018-04-22T21:00:22.521Z,9.00
2018-04-22T21:01:22.729Z,6.50
2018-04-22T21:02:22.953Z,6.70
2018-04-22T21:03:24.835Z,8.10
2018-04-22T21:04:23.291Z,7.30
2018-04-22T21:05:23.513Z,9.20
2018-04-22T21:06:23.728Z,7.00
2018-04-22T21:07:23.952Z,10.20
2018-04-22T21:08:24.168Z,5.90
2018-04-22T21:09:24.391Z,10.80
2018-04-22T21:10:24.616Z,8.70
2018-04-22T21:11:24.833Z,11.30
2018-04-22T21:12:25.054Z,6.70
2018-04-22T21:13:26.807Z,7.10
2018-04-22T21:14:25.427Z,7.90
2018-04-22T21:15:25.631Z,6.40
2018-04-22T21:16:25.845Z,8.40
2018-04-22T21:17:26.060Z,5.50
2018-04-22T21:18:27.807Z,7.60
2018-04-22T21:19:26.390Z,8.20
2018-04-22T21:20:26.609Z,7.70
2018-04-22T21:21:26.824Z,8.40
2018-04-22T21:22:27.039Z,5.80
2018-04-22T21:23:27.298Z,7.70
2018-04-22T21:24:29.314Z,7.50
2018-04-22T21:25:27.652Z,6.80
2018-04-22T21:26:27.875Z,7.20
2018-04-22T21:27:28.097Z,8.30
2018-04-22T21:28:28.316Z,6.10
2018-04-22T21:29:28.541Z,6.00
2018-04-22T21:30:28.761Z,6.90
2018-04-22T21:31:28.969Z,7.80
2018-04-22T21:32:29.180Z,7.90
2018-04-22T21:33:29.390Z,5.60
2018-04-22T21:34:29.617Z,8.60
2018-04-22T21:35:29.816Z,7.00
2018-04-22T21:36:30.025Z,8.50
2018-04-22T21:37:31.823Z,9.10
2018-04-22T21:38:30.422Z,8.20
2018-04-22T21:39:30.634Z,8.40
2018-04-22T21:40:30.853Z,10.90
2018-04-22T21:41:31.077Z,7.40
2018-04-22T21:42:31.301Z,7.70
2018-04-22T21:43:33.315Z,7.90
2018-04-22T21:44:31.653Z,9.10
2018-04-22T21:45:31.882Z,9.10
2018-04-22T21:46:32.112Z,7.70
2018-04-22T21:47:32.321Z,9.30
2018-04-22T21:48:34.315Z,10.30
2018-04-22T21:49:32.646Z,8.10
2018-04-22T21:50:34.823Z,10.30
2018-04-22T21:51:34.818Z,9.00
2018-04-22T21:52:33.154Z,8.80
2018-04-22T21:53:33.367Z,7.90
2018-04-22T21:54:33.586Z,8.50
2018-04-22T21:55:33.801Z,7.20
2018-04-22T21:56:34.020Z,8.50